sensor_id;sensor_type;location;lat;lon;timestamp;P1;durP1;ratioP1;P2;durP2;ratioP2
71836;SDS011;59686;51.716;7.016;2022-12-13T00:00:15;36.03;;;25.17;;
71836;SDS011;59686;51.716;7.016;2022-12-13T00:05:41;40.57;;;26.10;;
71836;SDS011;59686;51.716;7.016;2022-12-13T00:08:08;37.53;;;25.50;;
71836;SDS011;59686;51.716;7.016;2022-12-13T00:10:33;38.17;;;25.43;;
71836;SDS011;59686;51.716;7.016;2022-12-13T00:12:59;36.57;;;25.23;;
71836;SDS011;59686;51.716;7.016;2022-12-13T00:15:27;38.20;;;24.27;;
71836;SDS011;59686;51.716;7.016;2022-12-13T00:17:55;37.13;;;25.23;;
71836;SDS011;59686;51.716;7.016;2022-12-13T00:20:21;37.27;;;24.97;;
71836;SDS011;59686;51.716;7.016;2022-12-13T00:22:46;34.93;;;23.50;;
71836;SDS011;59686;51.716;7.016;2022-12-13T00:25:15;35.20;;;24.67;;
71836;SDS011;59686;51.716;7.016;2022-12-13T00:27:45;37.23;;;25.30;;
71836;SDS011;59686;51.716;7.016;2022-12-13T00:30:15;34.37;;;24.47;;
71836;SDS011;59686;51.716;7.016;2022-12-13T00:32:41;38.07;;;25.27;;
71836;SDS011;59686;51.716;7.016;2022-12-13T00:35:06;36.13;;;24.00;;
71836;SDS011;59686;51.716;7.016;2022-12-13T00:37:32;37.33;;;24.57;;
71836;SDS011;59686;51.716;7.016;2022-12-13T00:39:58;37.17;;;24.27;;
71836;SDS011;59686;51.716;7.016;2022-12-13T00:42:24;35.93;;;24.40;;
71836;SDS011;59686;51.716;7.016;2022-12-13T00:44:49;39.70;;;24.60;;
71836;SDS011;59686;51.716;7.016;2022-12-13T00:47:15;36.53;;;24.17;;
71836;SDS011;59686;51.716;7.016;2022-12-13T00:49:43;36.60;;;25.13;;
71836;SDS011;59686;51.716;7.016;2022-12-13T00:52:08;36.47;;;24.97;;
71836;SDS011;59686;51.716;7.016;2022-12-13T00:54:34;36.57;;;24.57;;
71836;SDS011;59686;51.716;7.016;2022-12-13T00:57:00;36.50;;;23.93;;
71836;SDS011;59686;51.716;7.016;2022-12-13T00:59:26;38.47;;;25.43;;
71836;SDS011;59686;51.716;7.016;2022-12-13T01:01:51;38.67;;;24.37;;
71836;SDS011;59686;51.716;7.016;2022-12-13T01:04:17;36.23;;;24.23;;
71836;SDS011;59686;51.716;7.016;2022-12-13T01:06:44;36.57;;;24.30;;
71836;SDS011;59686;51.716;7.016;2022-12-13T01:09:18;33.53;;;24.00;;
71836;SDS011;59686;51.716;7.016;2022-12-13T01:11:48;36.80;;;24.47;;
71836;SDS011;59686;51.716;7.016;2022-12-13T01:14:14;38.93;;;25.13;;
71836;SDS011;59686;51.716;7.016;2022-12-13T01:16:41;33.63;;;23.57;;
71836;SDS011;59686;51.716;7.016;2022-12-13T01:19:07;35.33;;;23.77;;
71836;SDS011;59686;51.716;7.016;2022-12-13T01:21:33;37.30;;;25.50;;
71836;SDS011;59686;51.716;7.016;2022-12-13T01:23:59;33.20;;;23.73;;
71836;SDS011;59686;51.716;7.016;2022-12-13T01:26:27;36.77;;;24.30;;
71836;SDS011;59686;51.716;7.016;2022-12-13T01:28:53;38.30;;;24.63;;
71836;SDS011;59686;51.716;7.016;2022-12-13T01:31:19;36.37;;;24.17;;
71836;SDS011;59686;51.716;7.016;2022-12-13T01:33:45;36.30;;;24.43;;
71836;SDS011;59686;51.716;7.016;2022-12-13T01:36:12;34.37;;;23.27;;
71836;SDS011;59686;51.716;7.016;2022-12-13T01:38:50;35.50;;;24.57;;
71836;SDS011;59686;51.716;7.016;2022-12-13T01:41:16;34.70;;;23.13;;
71836;SDS011;59686;51.716;7.016;2022-12-13T01:46:13;33.87;;;23.50;;
71836;SDS011;59686;51.716;7.016;2022-12-13T01:49:00;39.03;;;24.67;;
71836;SDS011;59686;51.716;7.016;2022-12-13T01:51:34;38.83;;;24.07;;
71836;SDS011;59686;51.716;7.016;2022-12-13T01:54:16;37.57;;;24.30;;
71836;SDS011;59686;51.716;7.016;2022-12-13T01:56:52;33.53;;;23.03;;
71836;SDS011;59686;51.716;7.016;2022-12-13T01:59:19;36.40;;;23.03;;
71836;SDS011;59686;51.716;7.016;2022-12-13T02:01:47;36.93;;;23.23;;
71836;SDS011;59686;51.716;7.016;2022-12-13T02:04:16;34.13;;;23.40;;
71836;SDS011;59686;51.716;7.016;2022-12-13T02:06:51;34.63;;;22.33;;
71836;SDS011;59686;51.716;7.016;2022-12-13T02:09:17;33.20;;;22.63;;
71836;SDS011;59686;51.716;7.016;2022-12-13T02:11:44;34.90;;;22.80;;
71836;SDS011;59686;51.716;7.016;2022-12-13T02:14:10;34.17;;;21.30;;
71836;SDS011;59686;51.716;7.016;2022-12-13T02:19:30;36.77;;;23.57;;
71836;SDS011;59686;51.716;7.016;2022-12-13T02:24:41;33.40;;;22.20;;
71836;SDS011;59686;51.716;7.016;2022-12-13T02:32:54;32.43;;;22.17;;
71836;SDS011;59686;51.716;7.016;2022-12-13T02:35:45;31.57;;;20.30;;
71836;SDS011;59686;51.716;7.016;2022-12-13T02:43:54;30.53;;;19.43;;
71836;SDS011;59686;51.716;7.016;2022-12-13T02:46:29;32.20;;;20.33;;
71836;SDS011;59686;51.716;7.016;2022-12-13T02:48:59;30.33;;;19.93;;
71836;SDS011;59686;51.716;7.016;2022-12-13T02:51:26;29.93;;;20.17;;
71836;SDS011;59686;51.716;7.016;2022-12-13T02:53:52;28.97;;;19.53;;
71836;SDS011;59686;51.716;7.016;2022-12-13T02:56:18;30.53;;;19.77;;
71836;SDS011;59686;51.716;7.016;2022-12-13T02:58:48;28.10;;;19.30;;
71836;SDS011;59686;51.716;7.016;2022-12-13T03:04:29;31.77;;;19.13;;
71836;SDS011;59686;51.716;7.016;2022-12-13T03:07:38;27.33;;;17.67;;
71836;SDS011;59686;51.716;7.016;2022-12-13T03:10:36;29.20;;;17.90;;
71836;SDS011;59686;51.716;7.016;2022-12-13T03:13:17;26.00;;;17.43;;
71836;SDS011;59686;51.716;7.016;2022-12-13T03:16:04;25.73;;;17.73;;
71836;SDS011;59686;51.716;7.016;2022-12-13T03:18:44;26.37;;;17.70;;
71836;SDS011;59686;51.716;7.016;2022-12-13T03:21:11;26.23;;;17.67;;
71836;SDS011;59686;51.716;7.016;2022-12-13T03:23:37;26.83;;;17.63;;
71836;SDS011;59686;51.716;7.016;2022-12-13T03:26:05;29.37;;;17.50;;
71836;SDS011;59686;51.716;7.016;2022-12-13T03:28:34;25.43;;;17.60;;
71836;SDS011;59686;51.716;7.016;2022-12-13T03:31:01;25.03;;;16.67;;
71836;SDS011;59686;51.716;7.016;2022-12-13T03:33:27;25.13;;;16.90;;
71836;SDS011;59686;51.716;7.016;2022-12-13T03:35:53;26.00;;;17.00;;
71836;SDS011;59686;51.716;7.016;2022-12-13T03:38:20;25.73;;;17.40;;
71836;SDS011;59686;51.716;7.016;2022-12-13T03:40:45;25.37;;;17.67;;
71836;SDS011;59686;51.716;7.016;2022-12-13T03:43:12;24.87;;;16.47;;
71836;SDS011;59686;51.716;7.016;2022-12-13T03:45:37;23.93;;;15.83;;
71836;SDS011;59686;51.716;7.016;2022-12-13T03:48:03;23.50;;;16.10;;
71836;SDS011;59686;51.716;7.016;2022-12-13T03:50:29;27.23;;;16.87;;
71836;SDS011;59686;51.716;7.016;2022-12-13T03:52:59;25.37;;;17.47;;
71836;SDS011;59686;51.716;7.016;2022-12-13T03:55:26;24.17;;;16.07;;
71836;SDS011;59686;51.716;7.016;2022-12-13T03:57:53;24.87;;;15.80;;
71836;SDS011;59686;51.716;7.016;2022-12-13T04:00:19;26.20;;;15.60;;
71836;SDS011;59686;51.716;7.016;2022-12-13T04:02:45;23.57;;;15.37;;
71836;SDS011;59686;51.716;7.016;2022-12-13T04:05:13;23.97;;;15.60;;
71836;SDS011;59686;51.716;7.016;2022-12-13T04:07:39;21.57;;;14.53;;
71836;SDS011;59686;51.716;7.016;2022-12-13T04:10:28;22.97;;;14.87;;
71836;SDS011;59686;51.716;7.016;2022-12-13T04:12:57;26.50;;;15.70;;
71836;SDS011;59686;51.716;7.016;2022-12-13T04:15:41;23.53;;;15.53;;
71836;SDS011;59686;51.716;7.016;2022-12-13T04:18:19;23.30;;;13.90;;
71836;SDS011;59686;51.716;7.016;2022-12-13T04:20:45;21.57;;;14.67;;
71836;SDS011;59686;51.716;7.016;2022-12-13T04:23:11;22.33;;;15.37;;
71836;SDS011;59686;51.716;7.016;2022-12-13T04:25:38;23.17;;;15.30;;
71836;SDS011;59686;51.716;7.016;2022-12-13T04:28:04;23.33;;;15.23;;
71836;SDS011;59686;51.716;7.016;2022-12-13T04:30:30;22.13;;;14.33;;
71836;SDS011;59686;51.716;7.016;2022-12-13T04:33:00;22.00;;;14.93;;
71836;SDS011;59686;51.716;7.016;2022-12-13T04:35:27;23.17;;;15.43;;
71836;SDS011;59686;51.716;7.016;2022-12-13T04:37:53;20.47;;;14.07;;
71836;SDS011;59686;51.716;7.016;2022-12-13T04:40:20;21.10;;;14.50;;
71836;SDS011;59686;51.716;7.016;2022-12-13T04:42:49;22.57;;;14.23;;
71836;SDS011;59686;51.716;7.016;2022-12-13T04:45:15;22.93;;;14.27;;
71836;SDS011;59686;51.716;7.016;2022-12-13T04:47:44;22.87;;;14.07;;
71836;SDS011;59686;51.716;7.016;2022-12-13T04:50:10;20.00;;;13.50;;
71836;SDS011;59686;51.716;7.016;2022-12-13T04:52:36;21.03;;;14.73;;
71836;SDS011;59686;51.716;7.016;2022-12-13T04:55:03;22.33;;;14.70;;
71836;SDS011;59686;51.716;7.016;2022-12-13T04:57:33;22.87;;;14.00;;
71836;SDS011;59686;51.716;7.016;2022-12-13T04:59:59;21.43;;;13.80;;
71836;SDS011;59686;51.716;7.016;2022-12-13T05:02:25;21.67;;;14.57;;
71836;SDS011;59686;51.716;7.016;2022-12-13T05:04:57;21.37;;;13.97;;
71836;SDS011;59686;51.716;7.016;2022-12-13T05:07:24;22.43;;;15.17;;
71836;SDS011;59686;51.716;7.016;2022-12-13T05:09:50;19.97;;;13.63;;
71836;SDS011;59686;51.716;7.016;2022-12-13T05:12:16;22.33;;;14.37;;
71836;SDS011;59686;51.716;7.016;2022-12-13T05:14:42;18.70;;;13.17;;
71836;SDS011;59686;51.716;7.016;2022-12-13T05:17:07;19.90;;;13.40;;
71836;SDS011;59686;51.716;7.016;2022-12-13T05:19:33;21.47;;;14.07;;
71836;SDS011;59686;51.716;7.016;2022-12-13T05:22:03;22.50;;;13.60;;
71836;SDS011;59686;51.716;7.016;2022-12-13T05:24:29;21.40;;;13.77;;
71836;SDS011;59686;51.716;7.016;2022-12-13T05:26:56;21.87;;;14.10;;
71836;SDS011;59686;51.716;7.016;2022-12-13T05:29:22;22.23;;;14.03;;
71836;SDS011;59686;51.716;7.016;2022-12-13T05:31:48;20.73;;;14.00;;
71836;SDS011;59686;51.716;7.016;2022-12-13T05:34:14;19.50;;;13.77;;
71836;SDS011;59686;51.716;7.016;2022-12-13T05:36:39;19.80;;;13.37;;
71836;SDS011;59686;51.716;7.016;2022-12-13T05:39:17;20.87;;;14.20;;
71836;SDS011;59686;51.716;7.016;2022-12-13T05:41:42;22.33;;;14.67;;
71836;SDS011;59686;51.716;7.016;2022-12-13T05:44:08;21.20;;;13.37;;
71836;SDS011;59686;51.716;7.016;2022-12-13T05:46:34;20.53;;;13.57;;
71836;SDS011;59686;51.716;7.016;2022-12-13T05:49:00;20.67;;;13.10;;
71836;SDS011;59686;51.716;7.016;2022-12-13T05:51:26;22.97;;;13.80;;
71836;SDS011;59686;51.716;7.016;2022-12-13T05:56:48;20.03;;;13.43;;
71836;SDS011;59686;51.716;7.016;2022-12-13T05:59:13;20.53;;;13.87;;
71836;SDS011;59686;51.716;7.016;2022-12-13T06:01:39;21.00;;;14.00;;
71836;SDS011;59686;51.716;7.016;2022-12-13T06:04:05;21.00;;;13.70;;
71836;SDS011;59686;51.716;7.016;2022-12-13T06:06:32;19.57;;;13.00;;
71836;SDS011;59686;51.716;7.016;2022-12-13T06:08:58;18.57;;;13.23;;
71836;SDS011;59686;51.716;7.016;2022-12-13T06:11:24;20.90;;;13.33;;
71836;SDS011;59686;51.716;7.016;2022-12-13T06:13:50;19.00;;;12.87;;
71836;SDS011;59686;51.716;7.016;2022-12-13T06:16:17;21.03;;;12.90;;
71836;SDS011;59686;51.716;7.016;2022-12-13T06:21:31;22.07;;;13.47;;
71836;SDS011;59686;51.716;7.016;2022-12-13T06:23:57;19.93;;;13.50;;
71836;SDS011;59686;51.716;7.016;2022-12-13T06:26:23;20.13;;;12.97;;
71836;SDS011;59686;51.716;7.016;2022-12-13T06:28:49;21.13;;;13.33;;
71836;SDS011;59686;51.716;7.016;2022-12-13T06:31:15;19.67;;;13.20;;
71836;SDS011;59686;51.716;7.016;2022-12-13T06:33:41;19.73;;;13.90;;
71836;SDS011;59686;51.716;7.016;2022-12-13T06:36:07;21.47;;;13.70;;
71836;SDS011;59686;51.716;7.016;2022-12-13T06:38:33;17.30;;;12.83;;
71836;SDS011;59686;51.716;7.016;2022-12-13T06:41:06;20.53;;;13.53;;
71836;SDS011;59686;51.716;7.016;2022-12-13T06:43:36;20.37;;;12.93;;
71836;SDS011;59686;51.716;7.016;2022-12-13T06:46:03;18.80;;;13.30;;
71836;SDS011;59686;51.716;7.016;2022-12-13T06:48:29;22.57;;;13.33;;
71836;SDS011;59686;51.716;7.016;2022-12-13T06:51:02;20.83;;;13.30;;
71836;SDS011;59686;51.716;7.016;2022-12-13T06:53:29;23.17;;;13.53;;
71836;SDS011;59686;51.716;7.016;2022-12-13T06:55:55;21.47;;;13.87;;
71836;SDS011;59686;51.716;7.016;2022-12-13T06:58:21;19.30;;;12.67;;
71836;SDS011;59686;51.716;7.016;2022-12-13T07:01:05;20.20;;;12.73;;
71836;SDS011;59686;51.716;7.016;2022-12-13T07:03:35;19.67;;;13.67;;
71836;SDS011;59686;51.716;7.016;2022-12-13T07:06:12;21.57;;;14.23;;
71836;SDS011;59686;51.716;7.016;2022-12-13T07:08:42;19.23;;;13.63;;
71836;SDS011;59686;51.716;7.016;2022-12-13T07:11:12;22.43;;;13.87;;
71836;SDS011;59686;51.716;7.016;2022-12-13T07:13:40;20.23;;;13.73;;
71836;SDS011;59686;51.716;7.016;2022-12-13T07:16:07;20.93;;;13.73;;
71836;SDS011;59686;51.716;7.016;2022-12-13T07:18:33;21.17;;;14.60;;
71836;SDS011;59686;51.716;7.016;2022-12-13T07:20:59;22.80;;;14.37;;
71836;SDS011;59686;51.716;7.016;2022-12-13T07:23:25;19.70;;;13.63;;
71836;SDS011;59686;51.716;7.016;2022-12-13T07:25:51;21.73;;;14.33;;
71836;SDS011;59686;51.716;7.016;2022-12-13T07:28:17;22.90;;;14.90;;
71836;SDS011;59686;51.716;7.016;2022-12-13T07:31:01;22.80;;;14.87;;
71836;SDS011;59686;51.716;7.016;2022-12-13T07:33:28;26.80;;;16.10;;
71836;SDS011;59686;51.716;7.016;2022-12-13T07:36:01;23.77;;;15.50;;
71836;SDS011;59686;51.716;7.016;2022-12-13T07:38:28;22.77;;;15.03;;
71836;SDS011;59686;51.716;7.016;2022-12-13T07:40:57;24.87;;;15.73;;
71836;SDS011;59686;51.716;7.016;2022-12-13T07:43:22;27.00;;;17.27;;
71836;SDS011;59686;51.716;7.016;2022-12-13T07:45:49;28.17;;;16.73;;
71836;SDS011;59686;51.716;7.016;2022-12-13T07:48:15;23.97;;;16.37;;
71836;SDS011;59686;51.716;7.016;2022-12-13T07:50:41;29.37;;;17.80;;
71836;SDS011;59686;51.716;7.016;2022-12-13T07:53:07;23.80;;;16.13;;
71836;SDS011;59686;51.716;7.016;2022-12-13T07:55:33;24.83;;;17.53;;
71836;SDS011;59686;51.716;7.016;2022-12-13T07:58:04;30.33;;;17.93;;
71836;SDS011;59686;51.716;7.016;2022-12-13T08:00:31;26.27;;;16.77;;
71836;SDS011;59686;51.716;7.016;2022-12-13T08:02:58;28.27;;;17.90;;
71836;SDS011;59686;51.716;7.016;2022-12-13T08:05:25;27.70;;;17.90;;
71836;SDS011;59686;51.716;7.016;2022-12-13T08:10:36;27.53;;;18.63;;
71836;SDS011;59686;51.716;7.016;2022-12-13T08:13:03;28.00;;;18.27;;
71836;SDS011;59686;51.716;7.016;2022-12-13T08:15:29;26.73;;;17.87;;
71836;SDS011;59686;51.716;7.016;2022-12-13T08:17:55;28.63;;;18.60;;
71836;SDS011;59686;51.716;7.016;2022-12-13T08:20:22;29.50;;;17.87;;
71836;SDS011;59686;51.716;7.016;2022-12-13T08:22:54;25.03;;;17.60;;
71836;SDS011;59686;51.716;7.016;2022-12-13T08:25:21;27.17;;;18.07;;
71836;SDS011;59686;51.716;7.016;2022-12-13T08:27:47;24.93;;;16.37;;
71836;SDS011;59686;51.716;7.016;2022-12-13T08:30:12;29.97;;;17.87;;
71836;SDS011;59686;51.716;7.016;2022-12-13T08:32:38;26.43;;;17.50;;
71836;SDS011;59686;51.716;7.016;2022-12-13T08:35:04;25.03;;;16.30;;
71836;SDS011;59686;51.716;7.016;2022-12-13T08:37:31;26.73;;;16.83;;
71836;SDS011;59686;51.716;7.016;2022-12-13T08:39:57;27.00;;;17.47;;
71836;SDS011;59686;51.716;7.016;2022-12-13T08:42:23;26.97;;;17.40;;
71836;SDS011;59686;51.716;7.016;2022-12-13T08:44:49;25.63;;;17.20;;
71836;SDS011;59686;51.716;7.016;2022-12-13T08:47:17;26.57;;;17.20;;
71836;SDS011;59686;51.716;7.016;2022-12-13T08:49:43;24.67;;;17.20;;
71836;SDS011;59686;51.716;7.016;2022-12-13T08:52:09;26.93;;;17.53;;
71836;SDS011;59686;51.716;7.016;2022-12-13T08:54:35;24.97;;;16.97;;
71836;SDS011;59686;51.716;7.016;2022-12-13T08:57:00;25.57;;;17.30;;
71836;SDS011;59686;51.716;7.016;2022-12-13T08:59:26;24.63;;;16.37;;
71836;SDS011;59686;51.716;7.016;2022-12-13T09:01:57;25.00;;;16.43;;
71836;SDS011;59686;51.716;7.016;2022-12-13T09:04:22;27.90;;;16.67;;
71836;SDS011;59686;51.716;7.016;2022-12-13T09:06:48;25.10;;;16.53;;
71836;SDS011;59686;51.716;7.016;2022-12-13T09:09:13;26.80;;;17.27;;
71836;SDS011;59686;51.716;7.016;2022-12-13T09:11:39;24.50;;;16.00;;
71836;SDS011;59686;51.716;7.016;2022-12-13T09:14:05;27.27;;;16.23;;
71836;SDS011;59686;51.716;7.016;2022-12-13T09:16:31;28.30;;;17.43;;
71836;SDS011;59686;51.716;7.016;2022-12-13T09:19:00;27.67;;;17.03;;
71836;SDS011;59686;51.716;7.016;2022-12-13T09:21:27;26.17;;;16.83;;
71836;SDS011;59686;51.716;7.016;2022-12-13T09:23:53;25.83;;;16.43;;
71836;SDS011;59686;51.716;7.016;2022-12-13T09:26:19;26.57;;;17.20;;
71836;SDS011;59686;51.716;7.016;2022-12-13T09:28:44;23.73;;;15.73;;
71836;SDS011;59686;51.716;7.016;2022-12-13T09:31:11;27.30;;;17.27;;
71836;SDS011;59686;51.716;7.016;2022-12-13T09:33:39;26.17;;;16.40;;
71836;SDS011;59686;51.716;7.016;2022-12-13T09:36:05;24.60;;;16.27;;
71836;SDS011;59686;51.716;7.016;2022-12-13T09:38:32;25.33;;;15.97;;
71836;SDS011;59686;51.716;7.016;2022-12-13T09:40:59;25.30;;;16.33;;
71836;SDS011;59686;51.716;7.016;2022-12-13T09:43:54;25.00;;;15.63;;
71836;SDS011;59686;51.716;7.016;2022-12-13T09:49:17;23.60;;;15.63;;
71836;SDS011;59686;51.716;7.016;2022-12-13T09:51:56;23.87;;;15.83;;
71836;SDS011;59686;51.716;7.016;2022-12-13T09:54:24;24.13;;;16.10;;
71836;SDS011;59686;51.716;7.016;2022-12-13T09:56:50;23.80;;;16.47;;
71836;SDS011;59686;51.716;7.016;2022-12-13T09:59:18;23.17;;;15.20;;
71836;SDS011;59686;51.716;7.016;2022-12-13T10:01:50;24.70;;;15.27;;
71836;SDS011;59686;51.716;7.016;2022-12-13T10:04:16;23.23;;;16.00;;
71836;SDS011;59686;51.716;7.016;2022-12-13T10:06:43;23.90;;;16.40;;
71836;SDS011;59686;51.716;7.016;2022-12-13T10:09:10;24.57;;;16.37;;
71836;SDS011;59686;51.716;7.016;2022-12-13T10:11:48;26.00;;;16.07;;
71836;SDS011;59686;51.716;7.016;2022-12-13T10:14:17;23.87;;;15.93;;
71836;SDS011;59686;51.716;7.016;2022-12-13T10:16:45;24.23;;;15.63;;
71836;SDS011;59686;51.716;7.016;2022-12-13T10:19:18;24.60;;;15.47;;
71836;SDS011;59686;51.716;7.016;2022-12-13T10:21:47;22.10;;;15.10;;
71836;SDS011;59686;51.716;7.016;2022-12-13T10:24:21;24.37;;;15.90;;
71836;SDS011;59686;51.716;7.016;2022-12-13T10:26:55;23.53;;;15.43;;
71836;SDS011;59686;51.716;7.016;2022-12-13T10:29:24;24.17;;;15.53;;
71836;SDS011;59686;51.716;7.016;2022-12-13T10:31:50;26.30;;;16.87;;
71836;SDS011;59686;51.716;7.016;2022-12-13T10:34:21;22.93;;;15.10;;
71836;SDS011;59686;51.716;7.016;2022-12-13T10:36:58;22.23;;;14.83;;
71836;SDS011;59686;51.716;7.016;2022-12-13T10:39:43;22.73;;;15.43;;
71836;SDS011;59686;51.716;7.016;2022-12-13T10:42:13;26.10;;;15.80;;
71836;SDS011;59686;51.716;7.016;2022-12-13T10:44:40;25.87;;;15.60;;
71836;SDS011;59686;51.716;7.016;2022-12-13T10:49:39;23.70;;;15.47;;
71836;SDS011;59686;51.716;7.016;2022-12-13T10:52:32;27.60;;;16.00;;
71836;SDS011;59686;51.716;7.016;2022-12-13T10:55:05;23.50;;;15.47;;
71836;SDS011;59686;51.716;7.016;2022-12-13T10:57:48;25.57;;;15.37;;
71836;SDS011;59686;51.716;7.016;2022-12-13T11:00:32;24.13;;;14.77;;
71836;SDS011;59686;51.716;7.016;2022-12-13T11:03:00;22.90;;;14.87;;
71836;SDS011;59686;51.716;7.016;2022-12-13T11:05:37;23.97;;;15.43;;
71836;SDS011;59686;51.716;7.016;2022-12-13T11:08:20;23.03;;;15.30;;
71836;SDS011;59686;51.716;7.016;2022-12-13T11:11:00;23.17;;;14.50;;
71836;SDS011;59686;51.716;7.016;2022-12-13T11:13:35;23.93;;;14.77;;
71836;SDS011;59686;51.716;7.016;2022-12-13T11:16:03;24.03;;;15.33;;
71836;SDS011;59686;51.716;7.016;2022-12-13T11:21:54;23.43;;;14.93;;
71836;SDS011;59686;51.716;7.016;2022-12-13T11:24:23;25.83;;;15.47;;
71836;SDS011;59686;51.716;7.016;2022-12-13T11:27:19;22.43;;;15.27;;
71836;SDS011;59686;51.716;7.016;2022-12-13T11:38:44;20.83;;;14.27;;
71836;SDS011;59686;51.716;7.016;2022-12-13T11:41:57;24.73;;;14.97;;
71836;SDS011;59686;51.716;7.016;2022-12-13T11:44:28;22.40;;;14.60;;
71836;SDS011;59686;51.716;7.016;2022-12-13T11:47:22;20.73;;;14.87;;
71836;SDS011;59686;51.716;7.016;2022-12-13T11:49:51;22.63;;;14.67;;
71836;SDS011;59686;51.716;7.016;2022-12-13T12:03:01;21.47;;;14.27;;
71836;SDS011;59686;51.716;7.016;2022-12-13T12:05:53;22.07;;;14.17;;
71836;SDS011;59686;51.716;7.016;2022-12-13T12:08:32;25.13;;;14.67;;
71836;SDS011;59686;51.716;7.016;2022-12-13T12:11:15;20.53;;;14.00;;
71836;SDS011;59686;51.716;7.016;2022-12-13T12:13:52;22.13;;;14.17;;
71836;SDS011;59686;51.716;7.016;2022-12-13T12:16:34;22.20;;;14.00;;
71836;SDS011;59686;51.716;7.016;2022-12-13T12:19:19;24.07;;;15.20;;
71836;SDS011;59686;51.716;7.016;2022-12-13T12:22:10;22.67;;;14.57;;
71836;SDS011;59686;51.716;7.016;2022-12-13T12:52:14;21.97;;;13.43;;
71836;SDS011;59686;51.716;7.016;2022-12-13T13:00:24;20.83;;;13.73;;
71836;SDS011;59686;51.716;7.016;2022-12-13T13:05:52;20.43;;;13.23;;
71836;SDS011;59686;51.716;7.016;2022-12-13T13:11:15;19.93;;;14.30;;
71836;SDS011;59686;51.716;7.016;2022-12-13T13:16:48;20.67;;;13.60;;
71836;SDS011;59686;51.716;7.016;2022-12-13T13:21:44;22.30;;;14.83;;
71836;SDS011;59686;51.716;7.016;2022-12-13T13:26:48;21.10;;;13.87;;
71836;SDS011;59686;51.716;7.016;2022-12-13T13:31:57;20.27;;;14.10;;
71836;SDS011;59686;51.716;7.016;2022-12-13T13:34:24;20.80;;;14.47;;
71836;SDS011;59686;51.716;7.016;2022-12-13T13:36:57;23.17;;;15.37;;
71836;SDS011;59686;51.716;7.016;2022-12-13T13:45:20;22.30;;;14.23;;
71836;SDS011;59686;51.716;7.016;2022-12-13T13:49:59;23.07;;;14.53;;
71836;SDS011;59686;51.716;7.016;2022-12-13T13:55:54;23.93;;;14.53;;
71836;SDS011;59686;51.716;7.016;2022-12-13T14:09:38;23.33;;;14.70;;
71836;SDS011;59686;51.716;7.016;2022-12-13T14:21:32;22.73;;;15.20;;
71836;SDS011;59686;51.716;7.016;2022-12-13T14:29:28;21.73;;;14.67;;
71836;SDS011;59686;51.716;7.016;2022-12-13T14:32:17;21.27;;;14.73;;
71836;SDS011;59686;51.716;7.016;2022-12-13T14:34:45;19.60;;;14.47;;
71836;SDS011;59686;51.716;7.016;2022-12-13T14:37:52;23.37;;;14.77;;
71836;SDS011;59686;51.716;7.016;2022-12-13T14:40:21;22.23;;;15.37;;
71836;SDS011;59686;51.716;7.016;2022-12-13T14:42:53;21.07;;;14.97;;
71836;SDS011;59686;51.716;7.016;2022-12-13T14:45:23;21.17;;;14.97;;
71836;SDS011;59686;51.716;7.016;2022-12-13T14:48:00;22.73;;;15.03;;
71836;SDS011;59686;51.716;7.016;2022-12-13T14:50:30;23.43;;;15.40;;
71836;SDS011;59686;51.716;7.016;2022-12-13T14:53:01;25.20;;;16.00;;
71836;SDS011;59686;51.716;7.016;2022-12-13T14:57:55;24.53;;;14.90;;
71836;SDS011;59686;51.716;7.016;2022-12-13T15:02:59;22.73;;;15.00;;
71836;SDS011;59686;51.716;7.016;2022-12-13T15:05:36;23.00;;;15.97;;
71836;SDS011;59686;51.716;7.016;2022-12-13T15:08:09;23.43;;;15.57;;
71836;SDS011;59686;51.716;7.016;2022-12-13T15:13:27;22.73;;;15.30;;
71836;SDS011;59686;51.716;7.016;2022-12-13T15:15:58;24.60;;;15.97;;
71836;SDS011;59686;51.716;7.016;2022-12-13T15:18:26;22.30;;;14.73;;
71836;SDS011;59686;51.716;7.016;2022-12-13T15:20:54;24.23;;;15.90;;
71836;SDS011;59686;51.716;7.016;2022-12-13T15:23:31;22.10;;;15.23;;
71836;SDS011;59686;51.716;7.016;2022-12-13T15:29:01;24.30;;;15.80;;
71836;SDS011;59686;51.716;7.016;2022-12-13T15:31:30;23.13;;;16.03;;
71836;SDS011;59686;51.716;7.016;2022-12-13T15:37:02;23.03;;;15.97;;
71836;SDS011;59686;51.716;7.016;2022-12-13T15:39:38;22.83;;;16.33;;
71836;SDS011;59686;51.716;7.016;2022-12-13T15:42:16;23.20;;;15.87;;
71836;SDS011;59686;51.716;7.016;2022-12-13T15:45:03;21.47;;;15.00;;
71836;SDS011;59686;51.716;7.016;2022-12-13T15:47:31;23.63;;;16.27;;
71836;SDS011;59686;51.716;7.016;2022-12-13T15:50:05;22.30;;;15.90;;
71836;SDS011;59686;51.716;7.016;2022-12-13T15:52:34;24.07;;;16.30;;
71836;SDS011;59686;51.716;7.016;2022-12-13T15:57:33;22.97;;;15.57;;
71836;SDS011;59686;51.716;7.016;2022-12-13T16:00:21;24.57;;;16.07;;
71836;SDS011;59686;51.716;7.016;2022-12-13T16:08:32;23.33;;;15.40;;
71836;SDS011;59686;51.716;7.016;2022-12-13T16:11:02;22.73;;;15.67;;
71836;SDS011;59686;51.716;7.016;2022-12-13T16:13:30;22.60;;;16.00;;
71836;SDS011;59686;51.716;7.016;2022-12-13T16:18:54;21.00;;;14.30;;
71836;SDS011;59686;51.716;7.016;2022-12-13T16:21:22;22.63;;;15.43;;
71836;SDS011;59686;51.716;7.016;2022-12-13T16:23:48;25.37;;;16.20;;
71836;SDS011;59686;51.716;7.016;2022-12-13T16:26:13;23.80;;;16.23;;
71836;SDS011;59686;51.716;7.016;2022-12-13T16:28:44;23.07;;;15.50;;
71836;SDS011;59686;51.716;7.016;2022-12-13T16:31:18;23.13;;;15.27;;
71836;SDS011;59686;51.716;7.016;2022-12-13T16:33:46;21.47;;;15.47;;
71836;SDS011;59686;51.716;7.016;2022-12-13T16:36:12;23.07;;;15.10;;
71836;SDS011;59686;51.716;7.016;2022-12-13T16:38:38;21.70;;;15.30;;
71836;SDS011;59686;51.716;7.016;2022-12-13T16:41:04;23.40;;;14.97;;
71836;SDS011;59686;51.716;7.016;2022-12-13T16:43:32;21.53;;;14.70;;
71836;SDS011;59686;51.716;7.016;2022-12-13T16:46:13;21.90;;;15.07;;
71836;SDS011;59686;51.716;7.016;2022-12-13T16:48:38;21.17;;;15.10;;
71836;SDS011;59686;51.716;7.016;2022-12-13T16:51:04;20.50;;;14.43;;
71836;SDS011;59686;51.716;7.016;2022-12-13T16:53:32;19.67;;;14.80;;
71836;SDS011;59686;51.716;7.016;2022-12-13T16:56:10;22.13;;;14.90;;
71836;SDS011;59686;51.716;7.016;2022-12-13T16:58:39;20.33;;;13.73;;
71836;SDS011;59686;51.716;7.016;2022-12-13T17:01:13;21.47;;;14.67;;
71836;SDS011;59686;51.716;7.016;2022-12-13T17:03:41;20.33;;;14.33;;
71836;SDS011;59686;51.716;7.016;2022-12-13T17:06:07;20.67;;;14.47;;
71836;SDS011;59686;51.716;7.016;2022-12-13T17:08:35;21.40;;;14.70;;
71836;SDS011;59686;51.716;7.016;2022-12-13T17:11:01;22.23;;;14.97;;
71836;SDS011;59686;51.716;7.016;2022-12-13T17:13:26;21.43;;;14.40;;
71836;SDS011;59686;51.716;7.016;2022-12-13T17:15:52;20.67;;;14.53;;
71836;SDS011;59686;51.716;7.016;2022-12-13T17:18:29;19.73;;;14.00;;
71836;SDS011;59686;51.716;7.016;2022-12-13T17:20:54;19.57;;;13.60;;
71836;SDS011;59686;51.716;7.016;2022-12-13T17:23:20;19.70;;;14.27;;
71836;SDS011;59686;51.716;7.016;2022-12-13T17:28:38;20.77;;;13.80;;
71836;SDS011;59686;51.716;7.016;2022-12-13T17:31:05;18.40;;;13.17;;
71836;SDS011;59686;51.716;7.016;2022-12-13T17:33:37;19.67;;;13.33;;